Terminal Aerodrome Forecast
Issued by NWS

Home | Current Version | Previous Version | Text Only | Print | Product List | Glossary On
Versions: 1 2 3 4 5 6 7 8 9 10 11 12
000
FTUS42 TJSJ 011141
TAFKPK
TAF
TKPK 011141Z 0112/0212 11008KT P6SM SCT018 BKN090
     FM011330 12010KT P6SM SCT022
     FM012330 11008KT P6SM SCT018
      AMD NOT SKED 0202/0211=

USA.gov is the U.S. government's official web portal to all federal, state and local government web resources and services.